Terminal Aerodrome Forecast
Issued by NWS

Home | Current Version | Previous Version | Text Only | Print | Product List | Glossary On
Versions: 1 2 3 4 5 6 7 8 9 10 11 12 13 14 15 16 17 18 19 20 21 22 23 24
000
FTUS41 KGYX 262341
TAFRKD
TAF
KRKD 262341Z 2700/2724 14009G16KT 1SM -SHRA BR OVC001
     FM270300 09005KT 1/4SM -DZ FG OVC001
     FM271400 10005KT 2SM -DZ BR OVC003=

USA.gov is the U.S. government's official web portal to all federal, state and local government web resources and services.